Flight Track Log - Related Links

Times and Time Zones

All times are in EDT time to prevent confusion due to time zone crossing. See the CES2265 flight status page for this flight to view local times or setup timezone preferences in your user account.

Time Position Orientation Groundspeed Altitude Reporting Facility
EDT Latitude Longitude Course Direction KTS MPH feet Rate Location/Type
Sat 06:30:00 AM 36.6819 107.4242 153° Southeast  Level Estimated
Sat 06:31:00 AM 36.5996 107.4745 154° Southeast  Level Estimated
Sat 06:32:00 AM 36.5173 107.5248 154° Southeast  Level Estimated
Sat 06:33:00 AM 36.4350 107.5750 154° Southeast  Level Estimated
Sat 06:34:00 AM 36.3526 107.6250 154° Southeast  Level Estimated
Sat 06:35:00 AM 36.2703 107.6750 154° Southeast  Level Estimated
Sat 06:36:00 AM 36.1879 107.7248 154° Southeast  Level Estimated
Sat 06:37:00 AM 36.1055 107.7745 154° Southeast  Level Estimated
Sat 06:38:00 AM 36.0231 107.8242 154° Southeast  Level Estimated
Sat 06:39:00 AM 35.9406 107.8737 154° Southeast  Level Estimated
Sat 06:40:00 AM 35.8582 107.9231 154° Southeast  Level Estimated
Sat 06:41:00 AM 35.7757 107.9724 154° Southeast  Level Estimated
Sat 06:42:00 AM 35.6932 108.0217 154° Southeast  Level Estimated
Sat 06:43:00 AM 35.6107 108.0708 154° Southeast  Level Estimated
Sat 06:44:00 AM 35.5281 108.1198 154° Southeast  Level Estimated
Sat 06:45:00 AM 35.4456 108.1687 154° Southeast  Level Estimated
Sat 06:46:00 AM 35.3630 108.2175 154° Southeast  Level Estimated
Sat 06:47:00 AM 35.2804 108.2663 154° Southeast  Level Estimated
Sat 06:48:00 AM 35.1978 108.3149 154° Southeast  Level Estimated
Sat 06:49:00 AM 35.1151 108.3634 154° Southeast  Level Estimated
Sat 06:50:00 AM 35.0325 108.4118 154° Southeast  Level Estimated
Sat 06:51:00 AM 34.9498 108.4601 154° Southeast  Level Estimated
Sat 06:52:00 AM 34.8671 108.5083 154° Southeast  Level Estimated
Sat 06:53:00 AM 34.7844 108.5565 154° Southeast  Level Estimated
Sat 06:54:00 AM 34.7016 108.6045 154° Southeast  Level Estimated
Sat 06:55:00 AM 34.6189 108.6524 155° Southeast  Level Estimated
Sat 06:56:00 AM 34.5343 108.7013 155° Southeast  Level Estimated
Sat 06:57:00 AM 34.4497 108.7501 155° Southeast  Level Estimated
Sat 06:58:00 AM 34.4471 108.7516 155° Southeast  Level Estimated
Sat 06:59:00 AM 34.4471 108.7516 121° Southeast  Level Estimated
Sat 07:00:00 AM 34.4471 108.7516 121° Southeast  Level Estimated
Sat 07:01:00 AM 34.4471 108.7516 121° Southeast  Level Estimated
Sat 07:02:00 AM 34.4471 108.7516 121° Southeast  Level Estimated
Sat 07:03:00 AM 34.4471 108.7516 121° Southeast  Level Estimated
Sat 07:04:00 AM 34.4471 108.7516 121° Southeast  Level Estimated
Sat 07:05:00 AM 34.4471 108.7516 121° Southeast  Level Estimated
Sat 07:06:00 AM 34.4471 108.7516 121° Southeast  Level Estimated
Sat 07:07:00 AM 34.4471 108.7516 121° Southeast  Level Estimated
Sat 07:08:00 AM 34.4471 108.7516 121° Southeast  Level Estimated
Sat 07:09:00 AM 34.4471 108.7516 121° Southeast  Level Estimated
Sat 07:10:00 AM 34.4471 108.7516 121° Southeast  Level Estimated
Sat 07:11:00 AM 34.4471 108.7516 121° Southeast  Level Estimated
Sat 07:12:00 AM 34.4471 108.7516 121° Southeast  Level Estimated

Login

Don't have an account? Register now (free) for customized features, flight alerts, and more!